createdAt,value
2023-04-02T00:00:37.505Z,4.47
2023-04-02T00:03:24.342Z,5.57
2023-04-02T00:05:51.642Z,4.13
2023-04-02T00:08:41.076Z,5.00
2023-04-02T00:11:09.345Z,5.03
2023-04-02T00:13:43.920Z,4.67
2023-04-02T00:16:24.846Z,4.30
2023-04-02T00:18:55.564Z,5.10
2023-04-02T00:21:26.488Z,4.20
2023-04-02T00:23:59.108Z,4.40
2023-04-02T00:26:33.940Z,4.60
2023-04-02T00:29:02.860Z,3.70
2023-04-02T00:31:31.226Z,4.20
2023-04-02T00:34:00.338Z,3.80
2023-04-02T00:36:30.886Z,3.97
2023-04-02T00:39:00.096Z,4.27
2023-04-02T00:41:30.944Z,3.90
2023-04-02T00:43:59.688Z,3.70
2023-04-02T00:46:47.187Z,4.47
2023-04-02T00:49:37.133Z,3.70
2023-04-02T00:52:14.452Z,3.20
2023-04-02T00:54:51.391Z,3.67
2023-04-02T00:57:26.568Z,3.17
2023-04-02T01:00:23.770Z,3.17
2023-04-02T01:03:28.936Z,3.40
2023-04-02T01:06:04.091Z,2.73
2023-04-02T01:09:03.733Z,2.40
2023-04-02T01:11:45.888Z,2.27
2023-04-02T01:14:42.262Z,2.70
2023-04-02T01:17:26.582Z,2.50
2023-04-02T01:20:08.736Z,2.20
2023-04-02T01:23:02.493Z,2.57
2023-04-02T01:25:38.709Z,2.33
2023-04-02T01:28:25.634Z,2.50
2023-04-02T01:30:56.270Z,2.23
2023-04-02T01:33:29.198Z,1.93
2023-04-02T01:36:10.614Z,1.90
2023-04-02T01:38:58.021Z,2.37
2023-04-02T01:41:44.335Z,2.00
2023-04-02T01:44:19.378Z,1.97
2023-04-02T01:46:48.765Z,2.23
2023-04-02T01:49:19.980Z,2.80
2023-04-02T01:51:53.080Z,2.53
2023-04-02T01:54:22.268Z,2.20
2023-04-02T01:56:51.413Z,2.40
2023-04-02T01:59:22.271Z,2.40
2023-04-02T02:02:01.959Z,2.10
2023-04-02T02:04:31.228Z,2.47
2023-04-02T02:07:00.814Z,2.60
2023-04-02T02:09:33.081Z,2.37
2023-04-02T02:12:02.531Z,2.20
2023-04-02T02:14:31.430Z,1.97
2023-04-02T02:17:02.393Z,2.00
2023-04-02T02:19:38.080Z,2.23
2023-04-02T02:22:27.799Z,2.17
2023-04-02T02:25:00.384Z,2.40
2023-04-02T02:27:27.474Z,2.67
2023-04-02T02:30:14.076Z,2.50
2023-04-02T02:33:02.344Z,1.93
2023-04-02T02:35:55.326Z,1.77
2023-04-02T02:38:28.932Z,2.10
2023-04-02T02:41:11.739Z,2.10
2023-04-02T02:43:45.005Z,2.30
2023-04-02T02:46:18.230Z,2.47
2023-04-02T02:48:46.801Z,2.60
2023-04-02T02:51:29.270Z,2.70
2023-04-02T02:54:02.984Z,2.50
2023-04-02T02:56:34.378Z,3.07
2023-04-02T02:59:03.565Z,2.70
2023-04-02T03:01:34.170Z,3.00
2023-04-02T03:04:04.767Z,2.80
2023-04-02T03:06:32.271Z,2.67
2023-04-02T03:09:06.592Z,2.70
2023-04-02T03:12:03.185Z,2.40
2023-04-02T03:14:41.929Z,2.90
2023-04-02T03:17:17.665Z,2.80
2023-04-02T03:19:52.505Z,2.57
2023-04-02T03:22:56.486Z,2.50
2023-04-02T03:25:43.705Z,2.17
2023-04-02T03:28:17.192Z,2.90
2023-04-02T03:30:51.027Z,2.27
2023-04-02T03:33:27.661Z,2.70
2023-04-02T03:36:21.046Z,2.53
2023-04-02T03:39:00.183Z,2.40
2023-04-02T03:41:39.541Z,2.77
2023-04-02T03:44:18.414Z,2.87
2023-04-02T03:46:51.659Z,2.73
2023-04-02T03:49:24.092Z,3.10
2023-04-02T03:52:06.102Z,3.47
2023-04-02T03:54:34.250Z,3.10
2023-04-02T03:57:01.892Z,3.20
2023-04-02T03:59:58.240Z,3.30
2023-04-02T04:02:38.776Z,2.60
2023-04-02T04:05:28.949Z,2.60
2023-04-02T04:08:07.869Z,2.90
2023-04-02T04:10:35.991Z,3.10
2023-04-02T04:13:13.530Z,2.80
2023-04-02T04:15:46.272Z,3.37
2023-04-02T04:18:46.659Z,2.90
2023-04-02T04:21:29.932Z,3.33
2023-04-02T04:24:05.017Z,2.57
2023-04-02T04:26:44.339Z,3.20
2023-04-02T04:29:16.831Z,2.77
2023-04-02T04:31:49.954Z,3.33
2023-04-02T04:34:24.984Z,2.87
2023-04-02T04:37:01.706Z,2.87
2023-04-02T04:39:42.148Z,2.87
2023-04-02T04:42:20.244Z,3.13
2023-04-02T04:45:08.828Z,3.17
2023-04-02T04:47:40.752Z,3.33
2023-04-02T04:50:29.008Z,3.10
2023-04-02T04:52:56.335Z,3.20
2023-04-02T04:55:37.311Z,3.77
2023-04-02T04:58:27.249Z,4.00
2023-04-02T05:01:13.667Z,3.20
2023-04-02T05:03:51.723Z,3.40
2023-04-02T05:06:19.813Z,3.10
2023-04-02T05:08:51.647Z,3.60
2023-04-02T05:11:31.928Z,3.30
2023-04-02T05:14:08.599Z,4.20
2023-04-02T05:16:41.483Z,3.63
2023-04-02T05:19:18.750Z,3.33
2023-04-02T05:22:17.579Z,4.20
2023-04-02T05:24:55.407Z,3.63
2023-04-02T05:27:31.889Z,4.03
2023-04-02T05:30:07.164Z,4.63
2023-04-02T05:32:40.941Z,4.30
2023-04-02T05:35:16.144Z,5.07
2023-04-02T05:37:45.475Z,4.40
2023-04-02T05:40:21.817Z,4.63
2023-04-02T05:42:53.170Z,4.27
2023-04-02T05:45:27.038Z,4.37
2023-04-02T05:48:02.090Z,5.43
2023-04-02T05:50:40.357Z,4.87
2023-04-02T05:53:33.759Z,4.20
2023-04-02T05:56:21.959Z,4.63
2023-04-02T05:59:19.571Z,5.97
2023-04-02T06:01:51.765Z,4.53
2023-04-02T06:04:45.384Z,4.23
2023-04-02T06:07:23.077Z,4.07
2023-04-02T06:10:10.188Z,4.10
2023-04-02T06:13:00.273Z,4.47
2023-04-02T06:15:28.148Z,3.97
2023-04-02T06:18:01.516Z,4.60
2023-04-02T06:20:29.157Z,4.60
2023-04-02T06:23:01.833Z,4.73
2023-04-02T06:25:35.544Z,3.93
2023-04-02T06:28:06.947Z,3.53
2023-04-02T06:30:38.571Z,4.40
2023-04-02T06:33:06.519Z,4.30
2023-04-02T06:35:39.379Z,3.50
2023-04-02T06:38:14.749Z,3.97
2023-04-02T06:40:53.069Z,3.63
2023-04-02T06:43:40.960Z,3.83
2023-04-02T06:46:40.507Z,3.43
2023-04-02T06:49:19.511Z,3.63
2023-04-02T06:51:51.814Z,3.53
2023-04-02T06:54:19.191Z,4.30
2023-04-02T06:56:53.131Z,3.87
2023-04-02T06:59:26.869Z,3.80
2023-04-02T07:02:00.300Z,3.20
2023-04-02T07:04:27.765Z,3.50
2023-04-02T07:06:55.755Z,3.47
2023-04-02T07:09:26.713Z,3.43
2023-04-02T07:11:57.060Z,3.43
2023-04-02T07:14:23.849Z,3.13
2023-04-02T07:16:51.001Z,3.40
2023-04-02T07:19:21.170Z,3.00
2023-04-02T07:21:51.065Z,3.13
2023-04-02T07:24:19.986Z,2.80
2023-04-02T07:26:48.294Z,3.57
2023-04-02T07:29:16.819Z,3.40
2023-04-02T07:31:44.315Z,3.57
2023-04-02T07:34:11.830Z,3.80
2023-04-02T07:36:38.819Z,3.33
2023-04-02T07:39:06.215Z,3.70
2023-04-02T07:41:33.213Z,3.33
2023-04-02T07:44:00.323Z,3.20
2023-04-02T07:46:27.429Z,3.60
2023-04-02T07:48:54.249Z,3.60
2023-04-02T07:51:26.042Z,3.17
2023-04-02T07:53:56.461Z,3.20
2023-04-02T07:56:25.425Z,3.77
2023-04-02T07:58:52.366Z,3.23
2023-04-02T08:01:25.709Z,2.73
2023-04-02T08:03:54.835Z,2.30
2023-04-02T08:06:22.749Z,2.60
2023-04-02T08:08:50.712Z,2.77
2023-04-02T08:11:17.796Z,2.30
2023-04-02T08:13:44.611Z,2.30
2023-04-02T08:16:11.855Z,2.57
2023-04-02T08:18:39.445Z,2.53
2023-04-02T08:21:08.726Z,2.37
2023-04-02T08:23:37.075Z,2.67
2023-04-02T08:26:05.689Z,2.40
2023-04-02T08:28:32.533Z,2.70
2023-04-02T08:30:59.700Z,2.80
2023-04-02T08:33:26.463Z,2.30
2023-04-02T08:35:54.004Z,1.93
2023-04-02T08:38:21.976Z,2.80
2023-04-02T08:40:51.888Z,2.30
2023-04-02T08:43:28.832Z,2.37
2023-04-02T08:45:58.606Z,2.10
2023-04-02T08:48:25.558Z,2.00
2023-04-02T08:50:52.983Z,2.50
2023-04-02T08:53:24.834Z,2.17
2023-04-02T08:56:05.538Z,2.10
2023-04-02T08:58:45.495Z,1.93
2023-04-02T09:01:35.122Z,1.93
2023-04-02T09:04:07.006Z,2.90
2023-04-02T09:06:34.834Z,1.93
2023-04-02T09:09:01.742Z,2.13
2023-04-02T09:11:47.749Z,1.87
2023-04-02T09:14:27.414Z,2.00
2023-04-02T09:16:59.153Z,1.80
2023-04-02T09:19:33.271Z,1.90
2023-04-02T09:22:06.411Z,1.87
2023-04-02T09:24:33.958Z,2.07
2023-04-02T09:27:01.553Z,1.83
2023-04-02T09:29:44.274Z,1.60
2023-04-02T09:32:19.888Z,2.00
2023-04-02T09:34:46.878Z,2.40
2023-04-02T09:37:17.739Z,2.20
2023-04-02T09:39:44.765Z,1.60
2023-04-02T09:42:32.047Z,2.10
2023-04-02T09:45:12.604Z,2.03
2023-04-02T09:47:42.458Z,1.83
2023-04-02T09:50:26.843Z,1.87
2023-04-02T09:52:53.933Z,2.33
2023-04-02T09:55:27.261Z,2.13
2023-04-02T09:58:16.044Z,1.77
2023-04-02T10:00:51.229Z,1.77
2023-04-02T10:03:28.526Z,1.83
2023-04-02T10:06:15.883Z,2.17
2023-04-02T10:08:45.559Z,1.67
2023-04-02T10:11:43.764Z,2.07
2023-04-02T10:14:23.014Z,1.90
2023-04-02T10:16:53.868Z,1.60
2023-04-02T10:19:35.953Z,1.90
2023-04-02T10:22:13.616Z,1.30
2023-04-02T10:24:40.867Z,1.87
2023-04-02T10:27:37.637Z,2.10
2023-04-02T10:30:42.869Z,2.03
2023-04-02T10:33:28.056Z,2.53
2023-04-02T10:36:07.308Z,2.20
2023-04-02T10:38:44.165Z,1.60
2023-04-02T10:41:33.642Z,1.73
2023-04-02T10:44:27.141Z,2.20
2023-04-02T10:47:04.829Z,1.60
2023-04-02T10:49:42.109Z,2.27
2023-04-02T10:52:17.510Z,1.80
2023-04-02T10:54:49.129Z,2.00
2023-04-02T10:57:37.372Z,2.10
2023-04-02T11:00:16.698Z,1.73
2023-04-02T11:02:49.977Z,1.83
2023-04-02T11:05:45.492Z,2.07
2023-04-02T11:08:25.913Z,1.93
2023-04-02T11:11:04.777Z,2.13
2023-04-02T11:13:56.020Z,2.23
2023-04-02T11:16:23.590Z,2.30
2023-04-02T11:19:15.869Z,1.80
2023-04-02T11:22:03.106Z,2.03
2023-04-02T11:24:49.928Z,1.97
2023-04-02T11:27:30.354Z,1.67
2023-04-02T11:30:27.061Z,1.90
2023-04-02T11:32:55.171Z,1.47
2023-04-02T11:35:31.301Z,1.83
2023-04-02T11:38:12.166Z,1.77
2023-04-02T11:40:46.777Z,1.90
2023-04-02T11:43:38.207Z,2.00
2023-04-02T11:46:20.086Z,1.70
2023-04-02T11:48:47.341Z,1.67
2023-04-02T11:51:21.323Z,2.07
2023-04-02T11:53:50.727Z,1.80
2023-04-02T11:56:33.978Z,1.80
2023-04-02T11:59:15.670Z,1.90
2023-04-02T12:02:38.671Z,1.70
2023-04-02T12:05:47.103Z,1.90
2023-04-02T12:08:23.924Z,1.73
2023-04-02T12:10:58.191Z,2.10
2023-04-02T12:13:58.722Z,1.73
2023-04-02T12:16:31.360Z,1.80
2023-04-02T12:21:47.299Z,3.80
2023-04-02T12:24:21.146Z,2.27
2023-04-02T12:26:48.157Z,1.60
2023-04-02T12:29:26.598Z,1.60
2023-04-02T12:31:55.745Z,1.53
2023-04-02T12:34:28.379Z,2.13
2023-04-02T12:36:59.705Z,1.70
2023-04-02T12:39:28.444Z,1.70
2023-04-02T12:41:56.598Z,1.90
2023-04-02T12:44:31.159Z,1.70
2023-04-02T12:46:59.396Z,1.83
2023-04-02T12:49:41.361Z,1.50
2023-04-02T12:52:12.333Z,1.30
2023-04-02T12:54:45.702Z,2.37
2023-04-02T12:57:27.499Z,1.47
2023-04-02T13:00:00.368Z,1.97
2023-04-02T13:02:32.716Z,1.70
2023-04-02T13:05:01.725Z,1.77
2023-04-02T13:07:31.328Z,1.73
2023-04-02T13:10:04.527Z,1.40
2023-04-02T13:12:34.049Z,1.37
2023-04-02T13:15:04.537Z,1.67
2023-04-02T13:17:48.920Z,1.40
2023-04-02T13:20:38.722Z,1.33
2023-04-02T13:23:26.907Z,1.73
2023-04-02T13:25:54.892Z,1.67
2023-04-02T13:28:22.171Z,1.73
2023-04-02T13:30:49.229Z,2.47
2023-04-02T13:33:16.685Z,1.63
2023-04-02T13:35:43.997Z,1.83
2023-04-02T13:38:10.875Z,1.90
2023-04-02T13:40:38.352Z,1.50
2023-04-02T13:43:06.512Z,1.57
2023-04-02T13:45:37.603Z,1.80
2023-04-02T13:48:05.925Z,1.57
2023-04-02T13:50:36.112Z,1.37
2023-04-02T13:53:09.826Z,1.33
2023-04-02T13:55:41.572Z,1.30
2023-04-02T13:58:08.600Z,1.97
2023-04-02T14:00:37.820Z,1.73
2023-04-02T14:03:19.124Z,1.83
2023-04-02T14:06:01.329Z,1.83
2023-04-02T14:08:56.025Z,1.80
2023-04-02T14:11:26.086Z,1.43
2023-04-02T14:13:58.579Z,1.50
2023-04-02T14:16:44.235Z,1.20
2023-04-02T14:19:40.400Z,1.63
2023-04-02T14:22:30.550Z,1.50
2023-04-02T14:25:36.089Z,1.40
2023-04-02T14:28:15.773Z,2.10
2023-04-02T14:31:06.869Z,2.30
2023-04-02T14:33:42.798Z,2.20
2023-04-02T14:36:23.841Z,2.00
2023-04-02T14:39:00.841Z,2.43
2023-04-02T14:41:51.539Z,3.10
2023-04-02T14:44:23.465Z,1.27
2023-04-02T14:47:00.296Z,1.50
2023-04-02T14:49:39.995Z,1.23
2023-04-02T14:52:13.778Z,1.57
2023-04-02T14:54:52.456Z,2.13
2023-04-02T14:57:23.615Z,1.70
2023-04-02T15:00:15.586Z,1.90
2023-04-02T15:02:49.671Z,2.60
2023-04-02T15:05:48.106Z,2.00
2023-04-02T15:08:38.254Z,1.37
2023-04-02T15:11:19.966Z,1.43
2023-04-02T15:13:52.204Z,2.60
2023-04-02T15:16:23.282Z,2.37
2023-04-02T15:18:52.133Z,2.13
2023-04-02T15:21:19.000Z,2.40
2023-04-02T15:23:58.732Z,1.63
2023-04-02T15:26:38.220Z,2.37
2023-04-02T15:29:53.262Z,1.70
2023-04-02T15:32:30.497Z,1.73
2023-04-02T15:35:20.296Z,1.37
2023-04-02T15:38:22.743Z,1.87
2023-04-02T15:41:04.127Z,2.17
2023-04-02T15:44:08.332Z,1.30
2023-04-02T15:46:50.633Z,1.50
2023-04-02T15:50:01.659Z,1.40
2023-04-02T15:52:38.278Z,1.80
2023-04-02T15:55:25.882Z,1.60
2023-04-02T15:58:20.692Z,1.40
2023-04-02T16:01:11.550Z,2.00
2023-04-02T16:03:47.643Z,1.73
2023-04-02T16:06:28.019Z,1.53
2023-04-02T16:09:21.014Z,2.30
2023-04-02T16:11:55.881Z,2.30
2023-04-02T16:14:31.143Z,3.77
2023-04-02T16:17:17.593Z,2.67
2023-04-02T16:19:56.233Z,2.70
2023-04-02T16:22:33.766Z,1.40
2023-04-02T16:25:06.900Z,2.47
2023-04-02T16:27:45.446Z,2.10
2023-04-02T16:30:36.138Z,1.87
2023-04-02T16:33:35.582Z,1.70
2023-04-02T16:36:27.102Z,1.83
2023-04-02T16:39:03.350Z,1.60
2023-04-02T16:41:35.792Z,1.70
2023-04-02T16:44:39.885Z,1.30
2023-04-02T16:47:47.272Z,1.70
2023-04-02T16:50:17.224Z,1.70
2023-04-02T16:53:15.707Z,1.97
2023-04-02T16:56:08.553Z,1.97
2023-04-02T16:59:05.304Z,1.50
2023-04-02T17:01:47.657Z,1.70
2023-04-02T17:04:53.587Z,1.70
2023-04-02T17:07:48.112Z,1.80
2023-04-02T17:10:27.602Z,2.73
2023-04-02T17:13:02.946Z,1.80
2023-04-02T17:15:55.380Z,1.60
2023-04-02T17:18:24.786Z,1.43
2023-04-02T17:20:51.743Z,2.17
2023-04-02T17:23:20.465Z,1.60
2023-04-02T17:25:58.182Z,2.07
2023-04-02T17:28:36.609Z,2.00
2023-04-02T17:31:12.747Z,1.30
2023-04-02T17:33:39.810Z,1.50
2023-04-02T17:36:23.159Z,1.37
2023-04-02T17:39:14.749Z,1.50
2023-04-02T17:42:33.347Z,1.77
2023-04-02T17:45:22.183Z,2.13
2023-04-02T17:48:01.741Z,1.73
2023-04-02T17:50:50.345Z,1.60
2023-04-02T17:53:22.657Z,1.57
2023-04-02T17:56:11.579Z,1.40
2023-04-02T17:58:58.783Z,1.40
2023-04-02T18:01:50.705Z,1.63
2023-04-02T18:04:36.810Z,1.63
2023-04-02T18:07:10.478Z,1.93
2023-04-02T18:10:02.182Z,1.80
2023-04-02T18:12:55.292Z,1.53
2023-04-02T18:15:59.561Z,2.13
2023-04-02T18:18:41.584Z,2.17
2023-04-02T18:21:25.658Z,2.10
2023-04-02T18:24:14.383Z,1.70
2023-04-02T18:26:41.120Z,1.57
2023-04-02T18:29:23.299Z,1.70
2023-04-02T18:32:10.367Z,1.50
2023-04-02T18:34:51.993Z,1.50
2023-04-02T18:37:31.915Z,1.57
2023-04-02T18:40:11.492Z,1.73
2023-04-02T18:42:40.810Z,2.00
2023-04-02T18:45:40.799Z,1.43
2023-04-02T18:48:26.773Z,1.87
2023-04-02T18:50:54.066Z,1.47
2023-04-02T18:53:24.466Z,1.97
2023-04-02T18:56:02.601Z,1.90
2023-04-02T18:58:49.583Z,2.57
2023-04-02T19:01:23.667Z,2.70
2023-04-02T19:03:55.228Z,1.90
2023-04-02T19:06:27.052Z,1.70
2023-04-02T19:09:01.442Z,1.90
2023-04-02T19:11:29.579Z,1.70
2023-04-02T19:14:07.635Z,1.67
2023-04-02T19:16:48.190Z,2.30
2023-04-02T19:19:20.833Z,1.67
2023-04-02T19:21:51.461Z,1.80
2023-04-02T19:24:33.202Z,1.93
2023-04-02T19:27:18.938Z,2.20
2023-04-02T19:30:02.610Z,2.10
2023-04-02T19:32:51.748Z,2.00
2023-04-02T19:35:43.626Z,2.13
2023-04-02T19:38:26.084Z,2.20
2023-04-02T19:40:54.861Z,2.73
2023-04-02T19:43:21.954Z,1.80
2023-04-02T19:45:49.770Z,2.07
2023-04-02T19:48:20.537Z,3.13
2023-04-02T19:50:49.167Z,2.07
2023-04-02T19:53:16.911Z,2.47
2023-04-02T19:55:44.737Z,1.87
2023-04-02T19:58:33.387Z,2.00
2023-04-02T20:01:01.363Z,2.50
2023-04-02T20:03:28.649Z,3.10
2023-04-02T20:05:56.851Z,2.10
2023-04-02T20:08:23.857Z,2.77
2023-04-02T20:10:50.966Z,2.63
2023-04-02T20:13:18.216Z,2.50
2023-04-02T20:15:45.017Z,2.03
2023-04-02T20:18:12.047Z,1.80
2023-04-02T20:20:39.339Z,2.00
2023-04-02T20:23:06.553Z,2.43
2023-04-02T20:25:33.304Z,2.00
2023-04-02T20:28:02.887Z,2.53
2023-04-02T20:30:32.407Z,2.10
2023-04-02T20:32:59.912Z,2.17
2023-04-02T20:35:27.314Z,2.10
2023-04-02T20:37:54.343Z,2.17
2023-04-02T20:40:21.747Z,2.80
2023-04-02T20:42:48.834Z,2.53
2023-04-02T20:45:15.879Z,2.70
2023-04-02T20:47:43.136Z,2.40
2023-04-02T20:50:10.501Z,2.73
2023-04-02T20:52:37.504Z,2.40
2023-04-02T20:55:04.599Z,2.70
2023-04-02T20:57:31.721Z,2.63
2023-04-02T20:59:59.051Z,2.70
2023-04-02T21:02:26.176Z,2.10
2023-04-02T21:04:53.195Z,2.23
2023-04-02T21:07:20.350Z,2.67
2023-04-02T21:09:47.179Z,2.23
2023-04-02T21:12:14.201Z,2.43
2023-04-02T21:14:40.995Z,2.30
2023-04-02T21:17:08.222Z,3.03
2023-04-02T21:19:35.943Z,2.43
2023-04-02T21:22:03.482Z,2.33
2023-04-02T21:24:30.284Z,2.07
2023-04-02T21:26:57.331Z,2.00
2023-04-02T21:29:24.069Z,2.07
2023-04-02T21:31:51.224Z,2.37
2023-04-02T21:34:18.066Z,2.50
2023-04-02T21:36:48.000Z,1.93
2023-04-02T21:39:23.787Z,2.27
2023-04-02T21:41:53.063Z,2.20
2023-04-02T21:44:21.897Z,2.53
2023-04-02T21:46:51.076Z,1.90
2023-04-02T21:49:21.974Z,3.17
2023-04-02T21:51:51.393Z,1.87
2023-04-02T21:54:18.232Z,1.97
2023-04-02T21:56:46.571Z,2.30
2023-04-02T21:59:15.373Z,2.07
2023-04-02T22:01:45.089Z,2.00
2023-04-02T22:04:20.372Z,2.33
2023-04-02T22:06:47.973Z,1.97
2023-04-02T22:09:20.296Z,1.60
2023-04-02T22:11:50.712Z,1.77
2023-04-02T22:14:17.520Z,1.70
2023-04-02T22:16:44.600Z,1.93
2023-04-02T22:19:14.078Z,1.80
2023-04-02T22:21:41.821Z,2.23
2023-04-02T22:24:12.462Z,1.73
2023-04-02T22:26:40.662Z,1.70
2023-04-02T22:29:07.984Z,1.80
2023-04-02T22:31:35.636Z,2.27
2023-04-02T22:34:03.929Z,1.93
2023-04-02T22:36:31.440Z,2.00
2023-04-02T22:38:59.002Z,2.00
2023-04-02T22:41:29.366Z,2.10
2023-04-02T22:43:57.261Z,2.20
2023-04-02T22:46:26.093Z,1.77
2023-04-02T22:48:54.019Z,1.70
2023-04-02T22:51:22.661Z,1.83
2023-04-02T22:53:50.538Z,1.53
2023-04-02T22:56:22.582Z,1.40
2023-04-02T22:58:49.669Z,1.77
2023-04-02T23:01:28.471Z,1.53
2023-04-02T23:03:55.667Z,1.97
2023-04-02T23:06:24.233Z,2.17
2023-04-02T23:08:51.604Z,1.60
2023-04-02T23:11:24.687Z,2.63
2023-04-02T23:13:53.103Z,1.70
2023-04-02T23:16:20.555Z,1.50
2023-04-02T23:18:48.724Z,2.23
2023-04-02T23:21:17.066Z,2.03
2023-04-02T23:23:44.853Z,2.10
2023-04-02T23:26:18.306Z,1.70
2023-04-02T23:28:45.736Z,1.90
2023-04-02T23:31:15.834Z,1.97
2023-04-02T23:33:43.601Z,2.13
2023-04-02T23:36:16.299Z,2.27
2023-04-02T23:38:43.135Z,2.23
2023-04-02T23:41:17.377Z,1.37
2023-04-02T23:43:44.403Z,2.37
2023-04-02T23:46:11.684Z,1.70
2023-04-02T23:48:38.673Z,2.20
2023-04-02T23:51:06.823Z,1.80
2023-04-02T23:53:34.523Z,1.83
2023-04-02T23:56:01.712Z,1.60
2023-04-02T23:58:28.559Z,2.00
